Time;durP1;ratioP1;P1;durP2;ratioP2;P2;SDS_P1;SDS_P2;PMS_P1;PMS_P2;Temp;Humidity;BMP_temperature;BMP_pressure;BME280_temperature;BME280_humidity;BME280_pressure;Samples;Min_cycle;Max_cycle;Signal;HPM_P1;HPM_P2
2022/01/12 00:02:07;;;;;;;48.77;20.50;;;;;;;-3.02;100.00;102862.28;4949181;28;20503;-82
2022/01/12 00:04:34;;;;;;;54.17;21.53;;;;;;;-3.00;100.00;102859.81;4963984;28;20038;-81
2022/01/12 00:07:01;;;;;;;53.80;22.03;;;;;;;-3.03;100.00;102857.88;4958022;28;20137;-81
2022/01/12 00:09:28;;;;;;;55.43;22.77;;;;;;;-3.02;100.00;102854.53;4945064;28;20041;-81
2022/01/12 00:11:54;;;;;;;55.60;22.70;;;;;;;-3.02;100.00;102849.38;4943500;28;20404;-81
2022/01/12 00:14:21;;;;;;;49.67;21.33;;;;;;;-2.86;100.00;102840.94;4972162;28;20046;-82
2022/01/12 00:16:48;;;;;;;53.13;20.23;;;;;;;-2.93;100.00;102847.41;4961738;28;20084;-80
2022/01/12 00:19:16;;;;;;;43.47;19.07;;;;;;;-2.85;100.00;102841.06;4992467;28;20044;-81
2022/01/12 00:21:42;;;;;;;48.03;19.43;;;;;;;-2.92;100.00;102837.97;4964191;28;20065;-81
2022/01/12 00:24:10;;;;;;;55.57;21.60;;;;;;;-2.81;100.00;102833.50;4949203;28;20125;-81
2022/01/12 00:26:42;;;;;;;49.87;20.83;;;;;;;-2.87;100.00;102842.63;4943013;28;20046;-81
2022/01/12 00:34:39;;;;;;;50.60;20.80;;;;;;;-2.85;100.00;102835.91;4967134;28;20096;-81
2022/01/12 00:37:05;;;;;;;57.43;22.57;;;;;;;-2.82;100.00;102835.22;4950132;28;20053;-81
2022/01/12 00:39:32;;;;;;;44.73;19.23;;;;;;;-2.84;100.00;102824.75;4959962;28;20042;-81
2022/01/12 00:41:59;;;;;;;49.67;21.07;;;;;;;-2.83;100.00;102823.06;4958349;28;20101;-81
2022/01/12 00:44:33;;;;;;;47.27;20.63;;;;;;;-2.79;100.00;102825.06;4950273;28;20097;-81
2022/01/12 00:47:00;;;;;;;46.53;20.25;;;;;;;-2.82;100.00;102822.28;4959636;28;20568;-81
2022/01/12 00:49:27;;;;;;;58.10;20.77;;;;;;;-2.79;100.00;102829.34;4961959;28;20088;-81
2022/01/12 00:51:54;;;;;;;50.63;20.00;;;;;;;-2.79;100.00;102813.81;4945955;28;20042;-82
2022/01/12 00:54:23;;;;;;;50.40;20.83;;;;;;;-2.72;100.00;102816.03;4954809;28;20050;-81
2022/01/12 00:56:49;;;;;;;44.87;20.87;;;;;;;-2.72;100.00;102821.22;4944398;28;20499;-81
2022/01/12 00:59:16;;;;;;;52.37;21.20;;;;;;;-2.77;100.00;102830.38;4960422;28;20066;-81
2022/01/12 01:01:43;;;;;;;48.97;20.60;;;;;;;-2.76;100.00;102826.97;4943124;28;20087;-82
2022/01/12 01:04:10;;;;;;;48.00;21.73;;;;;;;-2.83;100.00;102834.31;4952553;28;20042;-82
2022/01/12 01:06:37;;;;;;;51.60;20.37;;;;;;;-2.77;100.00;102831.25;4974546;28;20047;-82
2022/01/12 01:09:06;;;;;;;60.47;23.40;;;;;;;-2.67;100.00;102827.59;4987447;28;20060;-81
2022/01/12 01:11:33;;;;;;;54.73;22.40;;;;;;;-2.72;100.00;102826.38;4942844;28;20050;-82
2022/01/12 01:14:14;;;;;;;54.90;22.90;;;;;;;-2.63;100.00;102821.81;4964539;28;20049;-82
2022/01/12 01:16:54;;;;;;;50.40;21.10;;;;;;;-2.66;100.00;102822.53;4946281;28;20053;-83
2022/01/12 01:25:29;;;;;;;47.73;20.97;;;;;;;-2.70;100.00;102824.78;4949156;28;20034;-81
2022/01/12 01:25:32;;;;;;;49.90;22.20;;;;;;;-2.73;100.00;102828.06;4955051;28;20054;-81
2022/01/12 01:28:00;;;;;;;58.47;21.93;;;;;;;-2.70;100.00;102828.28;5038143;23;20049;-82
2022/01/12 01:30:26;;;;;;;56.90;22.47;;;;;;;-2.53;100.00;102825.94;4970467;23;20052;-80
2022/01/12 01:32:54;;;;;;;51.23;21.23;;;;;;;-2.64;100.00;102817.44;4976851;28;20388;-80
2022/01/12 01:35:21;;;;;;;55.23;20.20;;;;;;;-2.68;100.00;102812.88;4987907;28;20568;-80
2022/01/12 01:37:47;;;;;;;49.30;20.97;;;;;;;-2.56;100.00;102817.16;4960455;28;20042;-80
2022/01/12 01:40:14;;;;;;;51.63;20.27;;;;;;;-2.67;100.00;102822.44;4959332;28;20038;-80
2022/01/12 01:53:40;;;;;;;50.17;22.47;;;;;;;-2.56;100.00;102824.03;4980779;28;20042;-83
2022/01/12 01:56:07;;;;;;;46.63;19.00;;;;;;;-2.61;100.00;102826.34;4976661;28;20041;-80
2022/01/12 01:58:34;;;;;;;53.60;19.07;;;;;;;-2.52;100.00;102822.53;4962021;28;20050;-83
2022/01/12 02:01:01;;;;;;;44.33;19.10;;;;;;;-2.53;100.00;102825.94;4976531;28;20449;-83
2022/01/12 02:03:29;;;;;;;49.77;19.93;;;;;;;-2.55;100.00;102831.91;4969730;28;20046;-82
2022/01/12 02:06:00;;;;;;;43.77;17.70;;;;;;;-2.55;100.00;102825.81;4959405;28;20112;-82
2022/01/12 02:08:27;;;;;;;40.57;16.10;;;;;;;-2.52;100.00;102833.81;4961762;28;20045;-82
2022/01/12 02:10:58;;;;;;;44.40;18.43;;;;;;;-2.43;100.00;102834.44;4973364;28;20635;-82
2022/01/12 02:13:25;;;;;;;46.77;20.00;;;;;;;-2.52;100.00;102826.06;4974002;28;20038;-82
2022/01/12 02:15:53;;;;;;;37.07;17.27;;;;;;;-2.46;100.00;102812.59;4942043;28;20050;-82
2022/01/12 02:35:19;;;;;;;42.37;17.50;;;;;;;-2.40;100.00;102815.59;4974427;28;20042;-81
2022/01/12 02:40:36;;;;;;;38.00;17.37;;;;;;;-2.39;100.00;102813.13;4978364;28;20411;-81
2022/01/12 02:43:13;;;;;;;43.97;16.30;;;;;;;-2.46;100.00;102803.16;4972589;28;20380;-81
2022/01/12 02:53:48;;;;;;;43.80;17.33;;;;;;;-2.40;100.00;102811.31;4968549;28;20069;-82
2022/01/12 02:56:16;;;;;;;44.27;17.23;;;;;;;-2.42;100.00;102799.97;4973022;28;20042;-82
2022/01/12 02:58:44;;;;;;;42.90;18.77;;;;;;;-2.40;100.00;102790.63;4977256;28;20046;-82
2022/01/12 03:04:06;;;;;;;40.87;17.73;;;;;;;-2.34;100.00;102793.63;4970393;28;20045;-82
2022/01/12 03:06:37;;;;;;;42.33;16.50;;;;;;;-2.37;100.00;102798.56;4959992;28;20104;-82
2022/01/12 03:09:05;;;;;;;36.77;16.57;;;;;;;-2.32;100.00;102799.78;4957756;28;20073;-82
2022/01/12 03:11:34;;;;;;;42.83;17.27;;;;;;;-2.37;100.00;102806.34;4972354;28;20482;-82
2022/01/12 03:14:01;;;;;;;43.43;16.63;;;;;;;-2.35;100.00;102801.28;4976629;28;20042;-82
2022/01/12 03:16:28;;;;;;;41.83;18.23;;;;;;;-2.31;100.00;102798.09;4952664;28;20042;-82
2022/01/12 03:18:57;;;;;;;47.50;17.13;;;;;;;-2.30;100.00;102795.59;4971264;28;20042;-82
2022/01/12 03:21:32;;;;;;;39.90;17.77;;;;;;;-2.31;100.00;102792.91;4974504;28;20888;-82
2022/01/12 03:23:59;;;;;;;;;;;;;;;-2.28;100.00;102790.50;4977120;28;20053;-83
2022/01/12 03:26:28;;;;;;;40.20;15.20;;;;;;;-2.30;100.00;102790.44;4960813;28;19933;-82
2022/01/12 03:28:58;;;;;;;44.37;17.90;;;;;;;-2.24;100.00;102794.22;4965028;28;20058;-80
2022/01/12 03:31:28;;;;;;;46.07;17.57;;;;;;;-2.21;100.00;102799.59;4959105;28;20462;-81
2022/01/12 03:34:04;;;;;;;45.40;18.63;;;;;;;-2.22;100.00;102800.38;4975171;28;20542;-81
2022/01/12 03:36:53;;;;;;;39.87;16.27;;;;;;;-2.32;100.00;102798.91;4974242;28;20381;-81
2022/01/12 03:39:20;;;;;;;47.47;19.50;;;;;;;-2.22;100.00;102800.38;4991398;28;20043;-81
2022/01/12 03:41:48;;;;;;;44.60;18.87;;;;;;;-2.24;100.00;102804.56;4962215;28;20042;-81
2022/01/12 03:44:15;;;;;;;41.40;18.87;;;;;;;-2.25;100.00;102802.78;4987373;28;20069;-81
2022/01/12 03:46:47;;;;;;;41.30;20.00;;;;;;;-2.31;100.00;102801.56;4979664;28;20043;-80
2022/01/12 03:49:14;;;;;;;43.90;19.27;;;;;;;-2.22;100.00;102795.22;4997323;28;20049;-81
2022/01/12 03:51:41;;;;;;;43.23;17.50;;;;;;;-2.20;100.00;102791.03;4967167;28;20043;-81
2022/01/12 03:54:09;;;;;;;42.90;16.83;;;;;;;-2.19;100.00;102798.00;5000689;28;20046;-81
2022/01/12 03:56:36;;;;;;;44.00;18.17;;;;;;;-2.17;100.00;102801.59;4980373;28;20186;-81
2022/01/12 03:59:04;;;;;;;56.70;18.17;;;;;;;-2.13;100.00;102801.88;4982411;28;20046;-81
2022/01/12 04:01:31;;;;;;;39.57;17.50;;;;;;;-2.12;100.00;102808.84;4962843;28;20132;-81
2022/01/12 04:04:01;;;;;;;48.67;20.50;;;;;;;-2.18;100.00;102800.72;4977359;28;20109;-82
2022/01/12 04:09:34;;;;;;;43.17;17.50;;;;;;;-2.14;100.00;102794.03;4989992;28;20048;-81
2022/01/12 04:12:01;;;;;;;39.33;16.73;;;;;;;-2.11;100.00;102789.03;4981027;28;20053;-81
2022/01/12 04:14:28;;;;;;;52.23;18.40;;;;;;;-2.09;100.00;102792.63;4966502;28;20053;-81
2022/01/12 04:16:54;;;;;;;39.20;18.27;;;;;;;-2.11;100.00;102789.91;4964503;28;20050;-81
2022/01/12 04:19:24;;;;;;;45.90;18.57;;;;;;;-2.13;100.00;102786.34;4982081;28;20466;-81
2022/01/12 04:21:51;;;;;;;46.97;20.43;;;;;;;-2.07;100.00;102791.03;4978030;28;20062;-81
2022/01/12 04:24:18;;;;;;;47.40;18.10;;;;;;;-2.06;100.00;102787.66;4965262;28;20133;-81
2022/01/12 04:26:45;;;;;;;49.67;21.00;;;;;;;-2.18;100.00;102792.94;4957638;28;20440;-81
2022/01/12 04:29:13;;;;;;;46.67;17.20;;;;;;;-2.13;100.00;102791.53;4979023;28;20046;-81
2022/01/12 04:31:40;;;;;;;44.83;19.03;;;;;;;-2.03;100.00;102795.59;4977822;28;20411;-81
2022/01/12 04:34:08;;;;;;;46.23;18.63;;;;;;;-1.98;100.00;102796.81;4966691;28;20034;-81
2022/01/12 04:36:36;;;;;;;43.80;18.90;;;;;;;-2.04;100.00;102807.66;4995862;28;20488;-81
2022/01/12 04:39:04;;;;;;;41.17;17.10;;;;;;;-2.06;100.00;102804.06;4980191;28;20046;-81
2022/01/12 04:41:31;;;;;;;46.13;17.47;;;;;;;-2.08;100.00;102804.78;4980963;28;20384;-81
2022/01/12 04:43:58;;;;;;;43.93;18.17;;;;;;;-2.03;100.00;102814.63;4966458;28;20073;-81
2022/01/12 04:46:35;;;;;;;45.50;18.50;;;;;;;-2.01;100.00;102806.97;4971148;28;20101;-81
2022/01/12 04:50:03;;;;;;;45.20;19.97;;;;;;;-2.04;100.00;102812.84;4966908;28;20069;-82
2022/01/12 04:51:58;;;;;;;44.40;17.70;;;;;;;-2.02;100.00;102818.09;4964438;28;20054;-80
2022/01/12 04:54:24;;;;;;;42.43;17.97;;;;;;;-2.00;100.00;102814.84;4959312;28;20643;-81
2022/01/12 04:56:51;;;;;;;45.40;18.00;;;;;;;-2.05;100.00;102803.28;4963081;28;20399;-81
2022/01/12 04:59:18;;;;;;;42.50;18.10;;;;;;;-1.99;100.00;102798.50;4965624;28;20050;-81
2022/01/12 05:01:52;;;;;;;46.80;18.87;;;;;;;-2.04;100.00;102806.75;4972424;28;20084;-81
2022/01/12 05:07:22;;;;;;;43.37;17.67;;;;;;;-2.04;100.00;102796.41;4937447;28;19961;-87
2022/01/12 05:12:46;;;;;;;43.70;17.53;;;;;;;-2.03;100.00;102793.00;4943728;29;20048;-87
2022/01/12 05:12:52;;;;;;;44.90;17.50;;;;;;;-1.97;100.00;102793.41;4927892;29;20138;-85
2022/01/12 05:15:29;;;;;;;51.87;19.83;;;;;;;-1.92;100.00;102793.72;4931874;29;20055;-84
2022/01/12 05:17:56;;;;;;;47.23;19.07;;;;;;;-1.93;100.00;102792.84;4924935;29;20044;-85
2022/01/12 05:20:23;;;;;;;46.63;19.03;;;;;;;-1.94;100.00;102780.66;4940304;28;20118;-86
2022/01/12 05:22:50;;;;;;;56.90;18.90;;;;;;;-1.97;100.00;102783.06;4923593;29;20134;-82
2022/01/12 05:25:17;;;;;;;52.53;20.47;;;;;;;-1.98;100.00;102778.69;4927110;29;20039;-85
2022/01/12 05:27:46;;;;;;;48.90;18.47;;;;;;;-1.93;100.00;102773.78;4905602;29;20130;-83
2022/01/12 05:30:13;;;;;;;47.50;20.63;;;;;;;-1.95;100.00;102767.59;4937276;29;20493;-85
2022/01/12 05:32:40;;;;;;;44.90;19.80;;;;;;;-1.89;100.00;102774.09;4929999;29;20072;-83
2022/01/12 05:35:09;;;;;;;50.97;21.23;;;;;;;-1.85;100.00;102768.31;4937264;29;20428;-84
2022/01/12 05:37:35;;;;;;;45.87;19.10;;;;;;;-1.92;100.00;102760.94;4921021;29;20099;-85
2022/01/12 05:40:04;;;;;;;45.07;19.17;;;;;;;-1.83;100.00;102771.88;4925019;29;20040;-82
2022/01/12 05:42:31;;;;;;;51.23;20.10;;;;;;;-1.93;100.00;102774.69;4918250;29;20052;-83
2022/01/12 05:44:58;;;;;;;51.37;20.07;;;;;;;-1.96;100.00;102773.59;4907770;29;20056;-85
2022/01/12 05:50:04;;;;;;;49.67;18.33;;;;;;;-1.95;100.00;102755.53;4932615;29;20075;-85
2022/01/12 05:52:31;;;;;;;49.50;21.10;;;;;;;-1.86;100.00;102765.59;4930495;29;20056;-84
2022/01/12 05:54:57;;;;;;;50.97;19.73;;;;;;;-1.84;100.00;102770.09;4916263;29;20050;-85
2022/01/12 05:57:26;;;;;;;47.17;20.83;;;;;;;-1.85;100.00;102765.72;4895766;29;20044;-87
2022/01/12 05:59:53;;;;;;;53.43;20.50;;;;;;;-1.82;100.00;102767.59;4900449;29;20048;-83
2022/01/12 06:02:19;;;;;;;49.23;21.37;;;;;;;-1.84;100.00;102766.63;4915564;29;20040;-84
2022/01/12 06:04:46;;;;;;;50.47;20.83;;;;;;;-1.86;100.00;102771.66;4916709;29;20064;-85
2022/01/12 06:07:13;;;;;;;51.77;20.97;;;;;;;-1.86;100.00;102768.19;4930300;29;20040;-81
2022/01/12 06:09:39;;;;;;;62.17;23.63;;;;;;;-1.67;100.00;102767.69;4942339;29;20048;-84
2022/01/12 06:12:07;;;;;;;50.90;21.13;;;;;;;-1.79;100.00;102776.44;4928713;29;20524;-82
2022/01/12 06:14:34;;;;;;;52.03;20.60;;;;;;;-1.81;100.00;102777.16;4900298;29;20052;-83
2022/01/12 06:17:01;;;;;;;53.37;20.90;;;;;;;-1.82;100.00;102784.03;4929127;29;20578;-84
2022/01/12 06:19:27;;;;;;;56.67;22.77;;;;;;;-1.76;100.00;102797.41;4914498;29;20047;-83
2022/01/12 06:21:54;;;;;;;48.27;21.23;;;;;;;-1.74;100.00;102795.78;4912453;29;20131;-84
2022/01/12 06:24:21;;;;;;;52.37;20.80;;;;;;;-1.79;100.00;102792.00;4898235;29;20116;-84
2022/01/12 06:26:48;;;;;;;52.97;21.83;;;;;;;-1.77;100.00;102792.09;4928778;29;20526;-82
2022/01/12 06:29:25;;;;;;;56.83;21.77;;;;;;;-1.76;100.00;102791.31;4930029;29;20544;-83
2022/01/12 06:31:55;;;;;;;53.90;21.63;;;;;;;-1.76;100.00;102788.72;4912854;29;20044;-84
2022/01/12 06:34:22;;;;;;;56.87;20.87;;;;;;;-1.78;100.00;102783.41;4913885;29;20654;-84
2022/01/12 06:36:49;;;;;;;60.10;23.57;;;;;;;-1.78;100.00;102785.13;4912587;29;20039;-84
2022/01/12 06:39:17;;;;;;;61.60;23.03;;;;;;;-1.75;100.00;102806.06;4892221;29;20048;-81
2022/01/12 06:41:44;;;;;;;53.67;21.33;;;;;;;-1.64;100.00;102806.72;4908237;29;20474;-81
2022/01/12 06:44:14;;;;;;;55.50;23.30;;;;;;;-1.78;100.00;102805.84;4910026;29;20135;-83
2022/01/12 06:46:42;;;;;;;43.30;19.57;;;;;;;-1.80;100.00;102803.16;4892755;29;20569;-82
2022/01/12 06:49:11;;;;;;;57.60;22.20;;;;;;;-1.66;100.00;102806.66;4903992;29;20048;-83
2022/01/12 06:51:38;;;;;;;60.33;22.70;;;;;;;-1.69;100.00;102816.78;4911243;29;20501;-84
2022/01/12 06:54:05;;;;;;;54.30;20.73;;;;;;;-1.74;100.00;102808.75;4913253;29;20051;-83
2022/01/12 06:56:32;;;;;;;54.57;20.07;;;;;;;-1.75;100.00;102804.38;4911197;29;20082;-85
2022/01/12 06:58:58;;;;;;;55.40;23.23;;;;;;;-1.64;100.00;102817.09;4912867;29;20048;-83
2022/01/12 07:01:25;;;;;;;57.73;22.57;;;;;;;-1.65;100.00;102797.16;4910830;29;20055;-83
2022/01/12 07:03:52;;;;;;;54.60;20.90;;;;;;;-1.65;100.00;102804.94;4928938;29;20123;-84
2022/01/12 07:06:19;;;;;;;55.80;22.20;;;;;;;-1.65;100.00;102800.66;4896069;29;20052;-84
2022/01/12 07:08:48;;;;;;;57.33;22.70;;;;;;;-1.64;100.00;102786.00;4928526;29;20052;-82
2022/01/12 07:11:15;;;;;;;56.33;20.83;;;;;;;-1.56;100.00;102789.97;4911962;29;20044;-84
2022/01/12 07:13:42;;;;;;;65.33;24.07;;;;;;;-1.56;100.00;102798.63;4928484;29;20056;-84
2022/01/12 07:16:09;;;;;;;55.37;21.93;;;;;;;-1.57;100.00;102796.84;4911784;29;20683;-83
2022/01/12 07:18:36;;;;;;;60.73;22.90;;;;;;;-1.60;100.00;102803.53;4926130;29;20086;-83
2022/01/12 07:21:02;;;;;;;56.90;23.23;;;;;;;-1.58;100.00;102796.75;4862523;29;20049;-84
2022/01/12 07:23:29;;;;;;;61.67;21.73;;;;;;;-1.56;100.00;102802.94;4910507;29;20117;-84
2022/01/12 07:25:56;;;;;;;52.57;20.80;;;;;;;-1.45;100.00;102805.38;4927811;29;20048;-84
2022/01/12 07:28:23;;;;;;;57.63;21.33;;;;;;;-1.46;100.00;102807.88;4910927;29;20517;-83
2022/01/12 07:30:51;;;;;;;58.43;23.07;;;;;;;-1.39;100.00;102804.88;4893371;29;20044;-85
2022/01/12 07:33:18;;;;;;;56.90;22.23;;;;;;;-1.43;100.00;102805.47;4912986;29;20080;-82
2022/01/12 07:35:45;;;;;;;58.73;21.67;;;;;;;-1.42;100.00;102799.50;4930505;29;20048;-82
2022/01/12 07:38:11;;;;;;;53.63;21.50;;;;;;;-1.44;100.00;102801.09;4912612;29;20107;-86
2022/01/12 07:40:38;;;;;;;53.80;21.20;;;;;;;-1.39;100.00;102796.22;4897924;29;20048;-83
2022/01/12 07:43:06;;;;;;;52.23;19.93;;;;;;;-1.41;100.00;102798.72;4912545;29;20493;-82
2022/01/12 07:45:34;;;;;;;59.47;21.73;;;;;;;-1.25;100.00;102821.31;4915517;29;20079;-84
2022/01/12 07:48:01;;;;;;;57.27;22.00;;;;;;;-1.34;100.00;102825.94;4919427;29;20536;-83
2022/01/12 07:50:28;;;;;;;57.67;23.20;;;;;;;-1.31;100.00;102826.09;4928954;29;20186;-83
2022/01/12 07:52:54;;;;;;;56.43;22.50;;;;;;;-1.33;100.00;102831.19;4912579;29;20044;-83
2022/01/12 07:55:22;;;;;;;56.33;22.63;;;;;;;-1.36;100.00;102837.88;4929400;29;20115;-82
2022/01/12 07:57:50;;;;;;;48.53;19.80;;;;;;;-1.35;100.00;102834.47;4913177;29;20103;-83
2022/01/12 08:00:18;;;;;;;56.90;23.97;;;;;;;-1.35;100.00;102830.19;4899170;29;20052;-83
2022/01/12 08:02:45;;;;;;;58.67;21.57;;;;;;;-1.33;100.00;102823.41;4913501;29;20071;-84
2022/01/12 08:05:12;;;;;;;52.53;23.83;;;;;;;-1.29;100.00;102837.47;4899947;29;20056;-84
2022/01/12 08:07:39;;;;;;;48.20;19.87;;;;;;;-1.30;100.00;102833.97;4928702;29;20545;-82
2022/01/12 08:10:08;;;;;;;51.00;21.43;;;;;;;-1.28;100.00;102842.75;4930018;29;20514;-82
2022/01/12 08:12:36;;;;;;;57.17;23.47;;;;;;;-1.24;100.00;102836.06;4931231;29;20047;-82
2022/01/12 08:15:04;;;;;;;56.17;21.43;;;;;;;-1.18;100.00;102839.00;4933472;29;20047;-82
2022/01/12 08:17:32;;;;;;;53.63;21.67;;;;;;;-1.26;100.00;102828.19;4947801;29;20048;-83
2022/01/12 08:20:00;;;;;;;69.97;24.10;;;;;;;-1.21;100.00;102828.47;4918594;29;20047;-83
2022/01/12 08:22:27;;;;;;;57.13;22.90;;;;;;;-1.23;100.00;102841.34;4932457;29;20048;-81
2022/01/12 08:24:54;;;;;;;44.37;21.17;;;;;;;-1.21;100.00;102844.91;4921138;29;20489;-83
2022/01/12 08:27:21;;;;;;;49.23;20.80;;;;;;;-1.20;100.00;102849.28;4929679;29;20044;-83
2022/01/12 08:29:50;;;;;;;55.80;21.97;;;;;;;-1.16;100.00;102866.84;4917516;29;20050;-83
2022/01/12 08:32:17;;;;;;;54.63;19.17;;;;;;;-1.14;100.00;102867.84;4916820;29;20040;-84
2022/01/12 08:34:44;;;;;;;53.00;22.03;;;;;;;-1.07;100.00;102863.03;4932786;29;20059;-84
2022/01/12 08:37:10;;;;;;;47.33;21.77;;;;;;;-0.99;100.00;102879.97;4923826;29;20048;-84
2022/01/12 08:39:37;;;;;;;55.00;23.77;;;;;;;-1.13;100.00;102879.13;4917045;29;20549;-81
2022/01/12 08:42:04;;;;;;;52.70;20.57;;;;;;;-1.15;100.00;102876.44;4898924;29;20044;-83
2022/01/12 08:44:35;;;;;;;56.57;20.73;;;;;;;-1.08;100.00;102877.72;4932720;29;20421;-85
2022/01/12 08:47:05;;;;;;;52.47;22.70;;;;;;;-1.10;100.00;102879.28;4931061;29;20054;-84
2022/01/12 08:49:32;;;;;;;54.30;23.07;;;;;;;-1.10;100.00;102879.28;4901924;29;20520;-83
2022/01/12 08:51:58;;;;;;;55.67;21.80;;;;;;;-1.05;100.00;102871.81;4899253;29;20083;-83
2022/01/12 08:54:25;;;;;;;55.30;23.07;;;;;;;-1.06;100.00;102872.63;4932850;29;20052;-84
2022/01/12 08:56:52;;;;;;;54.87;21.63;;;;;;;-0.98;100.00;102868.81;4931471;29;20048;-82
2022/01/12 08:59:19;;;;;;;52.27;21.70;;;;;;;-0.98;100.00;102864.50;4917042;29;20120;-84
2022/01/12 09:01:45;;;;;;;59.67;21.10;;;;;;;-0.95;100.00;102864.69;4899640;29;20048;-84
2022/01/12 09:04:13;;;;;;;51.33;22.73;;;;;;;-0.94;100.00;102865.56;4900815;29;20088;-83
2022/01/12 09:06:39;;;;;;;57.30;20.50;;;;;;;-0.95;100.00;102862.09;4915341;29;20127;-84
2022/01/12 09:09:06;;;;;;;53.07;21.60;;;;;;;-0.88;100.00;102859.06;4917444;29;20502;-81
2022/01/12 09:11:33;;;;;;;56.10;25.90;;;;;;;-0.80;100.00;102856.94;4932057;29;20047;-83
2022/01/12 09:14:00;;;;;;;48.87;21.13;;;;;;;-0.83;100.00;102858.47;4916381;29;20082;-82
2022/01/12 09:16:27;;;;;;;55.70;22.40;;;;;;;-0.79;100.00;102856.13;4914650;29;20144;-84
2022/01/12 09:18:54;;;;;;;57.30;22.17;;;;;;;-0.81;100.00;102860.34;4915823;29;20682;-82
2022/01/12 09:21:22;;;;;;;56.63;22.27;;;;;;;-0.79;100.00;102869.13;4914276;29;20413;-82
2022/01/12 09:23:49;;;;;;;54.67;22.93;;;;;;;-0.76;100.00;102861.50;4915544;29;20047;-82
2022/01/12 09:26:16;;;;;;;52.73;23.13;;;;;;;-0.77;100.00;102857.13;4930576;29;20059;-82
2022/01/12 09:28:43;;;;;;;58.97;23.83;;;;;;;-0.71;100.00;102870.47;4931295;29;20398;-85
2022/01/12 09:31:09;;;;;;;55.00;23.97;;;;;;;-0.73;100.00;102856.53;4898118;29;20055;-82
2022/01/12 09:33:36;;;;;;;61.57;23.10;;;;;;;-0.61;100.00;102856.34;4899445;29;20056;-82
2022/01/12 09:36:03;;;;;;;62.20;23.40;;;;;;;-0.60;100.00;102856.44;4899144;29;20056;-82
2022/01/12 09:38:30;;;;;;;56.53;22.83;;;;;;;-0.68;100.00;102852.47;4914319;29;20044;-82
2022/01/12 09:40:57;;;;;;;71.47;23.93;;;;;;;-0.61;100.00;102845.97;4914200;29;20051;-85
2022/01/12 09:43:33;;;;;;;56.20;22.47;;;;;;;-0.66;100.00;102840.50;4899708;29;20135;-85
2022/01/12 09:46:00;;;;;;;63.00;23.33;;;;;;;-0.57;100.00;102833.28;4914791;29;20052;-83
2022/01/12 09:48:33;;;;;;;60.77;24.43;;;;;;;-0.60;100.00;102833.06;4931104;29;20126;-83
2022/01/12 09:51:04;;;;;;;59.70;24.90;;;;;;;-0.55;100.00;102829.88;4914266;29;20050;-83
2022/01/12 09:53:32;;;;;;;62.00;24.27;;;;;;;-0.51;100.00;102830.13;4931285;29;20103;-82
2022/01/12 09:55:59;;;;;;;59.87;25.20;;;;;;;-0.48;100.00;102826.84;4931082;29;20055;-84
2022/01/12 09:58:32;;;;;;;59.40;22.17;;;;;;;-0.48;100.00;102834.63;4919063;29;20050;-84
2022/01/12 10:01:01;;;;;;;61.30;24.70;;;;;;;-0.46;100.00;102823.50;4950839;29;20043;-82
2022/01/12 10:03:30;;;;;;;60.80;23.67;;;;;;;-0.44;100.00;102826.19;4951490;29;20051;-82
2022/01/12 10:05:57;;;;;;;65.20;25.93;;;;;;;-0.38;100.00;102834.34;4925299;29;20537;-84
2022/01/12 10:08:24;;;;;;;74.63;25.60;;;;;;;-0.25;100.00;102829.09;4915269;29;20048;-83
2022/01/12 10:11:20;;;;;;;60.80;24.27;;;;;;;-0.34;100.00;102825.91;4900556;29;20048;-83
2022/01/12 10:13:55;;;;;;;61.43;23.23;;;;;;;-0.25;100.00;102834.28;4878687;29;20055;-85
2022/01/12 10:16:26;;;;;;;64.37;23.23;;;;;;;-0.24;100.00;102840.38;4900422;29;20068;-82
2022/01/12 10:18:54;;;;;;;58.07;23.53;;;;;;;-0.28;100.00;102828.88;4932811;29;20056;-83
2022/01/12 10:21:30;;;;;;;52.20;24.00;;;;;;;-0.22;100.00;102825.75;4919499;29;20494;-84
2022/01/12 10:24:03;;;;;;;64.53;25.77;;;;;;;-0.24;100.00;102830.88;4918976;29;20104;-82
2022/01/12 10:26:39;;;;;;;56.10;22.20;;;;;;;-0.25;100.00;102826.47;4933859;29;20142;-87
2022/01/12 10:29:12;;;;;;;64.73;24.77;;;;;;;-0.22;100.00;102821.44;4944789;29;20047;-83
2022/01/12 10:31:48;;;;;;;60.20;24.00;;;;;;;-0.16;100.00;102811.44;4937217;29;20051;-87
2022/01/12 10:34:22;;;;;;;57.63;23.03;;;;;;;-0.18;100.00;102820.81;4909890;29;20506;-83
2022/01/12 10:36:50;;;;;;;59.00;22.87;;;;;;;-0.18;100.00;102822.50;4898390;29;20386;-83
2022/01/12 10:39:17;;;;;;;70.47;28.33;;;;;;;-0.16;100.00;102826.13;4915186;29;20055;-84
2022/01/12 10:41:55;;;;;;;62.53;25.30;;;;;;;-0.16;100.00;102821.81;4915506;29;20087;-82
2022/01/12 10:44:24;;;;;;;67.73;25.40;;;;;;;-0.07;100.00;102840.53;4899001;29;20048;-83
2022/01/12 10:47:22;;;;;;;70.30;26.30;;;;;;;-0.08;100.00;102841.34;4910706;29;20133;-82
2022/01/12 10:49:54;;;;;;;63.67;23.80;;;;;;;-0.11;100.00;102840.25;4880408;29;20506;-83
2022/01/12 10:52:38;;;;;;;60.90;24.87;;;;;;;-0.07;100.00;102837.03;4917338;29;20039;-85
2022/01/12 10:55:10;;;;;;;59.10;22.73;;;;;;;-0.04;100.00;102826.81;4914395;29;20044;-83
2022/01/12 10:57:39;;;;;;;68.23;25.07;;;;;;;0.05;100.00;102821.25;4928524;29;20131;-82
2022/01/12 11:00:19;;;;;;;58.50;25.50;;;;;;;0.05;100.00;102818.66;4930025;29;20048;-84
2022/01/12 11:02:47;;;;;;;57.07;25.73;;;;;;;0.04;100.00;102824.66;4912693;29;20044;-82
2022/01/12 11:05:14;;;;;;;63.93;25.23;;;;;;;0.01;100.00;102812.38;4929720;29;20525;-83
2022/01/12 11:07:41;;;;;;;67.07;24.03;;;;;;;0.03;100.00;102804.69;4912833;29;20048;-83
2022/01/12 11:10:09;;;;;;;63.03;27.20;;;;;;;0.10;100.00;102812.91;4930046;29;20103;-83
2022/01/12 11:12:37;;;;;;;77.40;26.50;;;;;;;0.10;100.00;102810.31;4928256;29;20413;-83
2022/01/12 11:15:09;;;;;;;66.97;27.47;;;;;;;0.10;100.00;102810.31;4913933;29;20076;-82
2022/01/12 11:17:38;;;;;;;64.10;25.90;;;;;;;0.14;100.00;102803.56;4911991;29;20048;-82
2022/01/12 11:20:22;;;;;;;61.37;26.03;;;;;;;0.19;100.00;102799.53;4898218;29;20519;-82
2022/01/12 11:23:14;;;;;;;66.10;26.52;;;;;;;0.18;100.00;102792.53;4928036;29;20055;-84
2022/01/12 11:25:43;;;;;;;67.27;26.23;;;;;;;0.20;100.00;102802.22;4897936;29;20052;-82
2022/01/12 11:28:15;;;;;;;66.60;25.00;;;;;;;0.23;100.00;102806.69;4911731;29;20044;-81
2022/01/12 11:30:44;;;;;;;62.87;25.00;;;;;;;0.21;100.00;102823.91;4944539;28;20056;-83
2022/01/12 11:33:13;;;;;;;64.47;26.37;;;;;;;0.26;100.00;102841.56;4912280;29;20045;-82
2022/01/12 11:35:42;;;;;;;68.70;27.27;;;;;;;0.21;100.00;102842.09;4908779;29;20058;-83
2022/01/12 11:38:26;;;;;;;61.93;25.20;;;;;;;0.24;100.00;102837.06;4912565;29;20052;-82
2022/01/12 11:40:56;;;;;;;61.90;25.08;;;;;;;0.20;100.00;102850.72;4913072;29;20056;-82
2022/01/12 11:43:29;;;;;;;60.37;25.43;;;;;;;0.19;100.00;102841.13;4915683;29;20052;-83
2022/01/12 11:46:01;;;;;;;64.57;26.38;;;;;;;0.21;100.00;102839.50;4897542;29;20462;-82
2022/01/12 11:48:29;;;;;;;69.23;26.67;;;;;;;0.20;100.00;102841.19;4913388;29;20159;-83
2022/01/12 11:50:56;;;;;;;64.37;27.47;;;;;;;0.19;100.00;102842.00;4897196;29;20425;-83
2022/01/12 11:53:23;;;;;;;67.27;26.93;;;;;;;0.18;100.00;102847.13;4897248;29;20044;-82
2022/01/12 11:55:50;;;;;;;73.03;26.50;;;;;;;0.23;100.00;102841.38;4930805;29;20056;-83
2022/01/12 11:58:18;;;;;;;69.90;26.93;;;;;;;0.22;100.00;102849.97;4900975;29;20040;-83
2022/01/12 12:00:44;;;;;;;67.33;26.90;;;;;;;0.18;100.00;102850.63;4926975;29;20074;-83
2022/01/12 12:03:16;;;;;;;71.83;28.90;;;;;;;0.20;100.00;102843.81;4913858;29;20036;-83
2022/01/12 12:05:43;;;;;;;62.23;26.23;;;;;;;0.21;100.00;102847.28;4915990;29;20111;-83
2022/01/12 12:08:10;;;;;;;64.33;25.20;;;;;;;0.21;100.00;102853.38;4929219;29;20522;-83
2022/01/12 12:10:40;;;;;;;76.10;29.40;;;;;;;0.25;100.00;102847.56;5008501;23;20421;-79